Monday, June 27, 2016
20:19 UTC
  |  Log In   |  Register Free
Airport Search:

Durant Regional - Eaker Field Airport
(KDUA)

Durant Regional - Eaker Field Airport Diagram
No Airport Diagram Available

FAA data valid effective May 26 2016 - Jul 21 2016 (unless otherwise noted).

 
 
 
 
 
 
 
 
 
 
 
 
 
 
Current Aviation Weather for KDUA

Weather Summary


The most recent METAR observation for DUA was updated at: 12:55 UTC
METAR for KDUA is not available. Closest METAR is for KGYI
KDUA  (most recent observation was updatred at 27:19 UTC)
271955Z AUTO 04007KT 10SM SCT050 SCT080 35/21 A3007 RMK AO2

KGYI  (19.5 nm NE)   (most recent observation was updated at 27:19 UTC)
271955Z AUTO 32007KT 10SM BKN050 BKN065 BKN080 35/21 A3007 RMK AO2 LTG DSNT N AND NE T03490207

KAQR  (30.0 nm SW)   (most recent observation was updated at 27:19 UTC)
271955Z AUTO 03005KT 10SM CLR 33/20 A3008 RMK AO2

TAF for KDUA is not available.
GlobalAir.com is loading additional information.
 Current Weather at DUA
95.0 F° (35.0 C°)

North winds at 9.2 mph
Pressure:
30.09 in
Humidity:
44%
Wind:
North at 9.2 mph
Dew Point:
69.8 F° (21.0 C°)
Visibility:
10.00 mi
DUA NOAA Radar




Find All Airport Services Find A Hotel Find A Rental Car Find A Golf Course Find A Restaurant $100 Hamburger



Airport Weather Forecast for KDUA

Translated METAR for KDUA (1955 UTC)
METAR:
KDUA 271955Z AUTO 04007KT 10SM SCT050 SCT080 35/21 A3007 RMK AO2
Conditions at:
KDUA (Durant Rgnl - Eaker Field, OK) observed 1955 UTC 27 June 2016
Temperature:
35°C (95°F)
Dewpoint:
21°C (69.8°F) [RH = 44.2]
Pressure:
30.07 inches Hg (1018.3 mb)
Winds:
from the NE (040 degrees) at 8.1 mph (7 knots: 3.6 m/s)
Visibility:
10 mile(s)
Ceiling:
at least 12,000 feet AGL
Clouds:
Scattered Clouds at 5,000 feet AGL
Scattered Clouds at 8,000 feet AGL
Remarks:
site is un-manned

Translated TAF for TAF for DUA is not available. Refer to local area forecast.
FBO's on the Field
FBO Company Facility Photos Services Transportation Aviation Fuel Prices: Prices include tax
Catering Weather Repair Courtesy Rental Type 100LL JetA JetA+ MOGAS 8087
 
D/W Aviation

This FBO has not yet been rated
FS:Avfuel
Last Updated: Jun-10
Login to update fuel prices
SS:
Contact D/W AviationMore FBO Information
 
Add another FBO Facility Photos Catering Weather Repair Courtesy Rental Type 100LL JetA JetA+ MOGAS 8087
Services Transportation Aviation Fuel Prices: Prices include tax


model-print
model-print
model-print
model-print